createdAt,value
2019-03-28T00:10:58.306Z,69.45
2019-03-28T00:13:28.322Z,69.56
2019-03-28T00:30:53.475Z,68.11
2019-03-28T00:33:42.229Z,68.68
2019-03-28T00:36:51.178Z,68.68
2019-03-28T00:42:30.400Z,69.72
2019-03-28T00:45:00.701Z,68.41
2019-03-28T00:50:26.445Z,68.54
2019-03-28T00:52:56.497Z,68.31
2019-03-28T00:55:26.550Z,69.31
2019-03-28T01:07:18.862Z,69.62
2019-03-28T01:12:55.266Z,68.67
2019-03-28T01:15:25.296Z,68.89
2019-03-28T01:21:30.292Z,68.76
2019-03-28T01:29:42.608Z,67.60
2019-03-28T01:38:17.767Z,66.69
2019-03-28T01:43:57.326Z,66.85
2019-03-28T01:49:47.617Z,66.17
2019-03-28T01:52:17.672Z,64.32
2019-03-28T01:57:43.634Z,63.86
2019-03-28T02:06:39.805Z,62.07
2019-03-28T02:09:09.834Z,61.03
2019-03-28T02:11:40.338Z,60.41
2019-03-28T02:22:55.899Z,60.39
2019-03-28T02:34:52.998Z,60.84
2019-03-28T02:40:28.699Z,60.99
2019-03-28T02:42:58.846Z,60.93
2019-03-28T02:45:29.907Z,60.80
2019-03-28T02:48:01.659Z,61.30
2019-03-28T02:56:23.936Z,59.79
2019-03-28T02:58:53.882Z,60.41
2019-03-28T03:02:02.971Z,59.78
2019-03-28T03:04:32.846Z,59.61
2019-03-28T03:09:58.963Z,59.96
2019-03-28T03:18:52.549Z,59.95
2019-03-28T03:30:25.768Z,60.99
2019-03-28T03:32:55.897Z,61.13
2019-03-28T03:36:04.921Z,61.08
2019-03-28T03:41:54.610Z,60.65
2019-03-28T03:44:24.881Z,61.27
2019-03-28T03:46:54.912Z,60.99
2019-03-28T03:49:24.818Z,61.37
2019-03-28T03:55:42.907Z,61.08
2019-03-28T04:01:08.317Z,61.69
2019-03-28T04:03:38.335Z,62.89
2019-03-28T04:06:08.341Z,62.18
2019-03-28T04:14:29.586Z,63.36
2019-03-28T04:16:59.727Z,63.23
2019-03-28T04:19:29.743Z,63.44
2019-03-28T04:21:59.696Z,63.08
2019-03-28T04:24:29.684Z,63.60
2019-03-28T04:33:06.781Z,64.10
2019-03-28T04:39:01.691Z,63.88
2019-03-28T04:44:38.535Z,64.23
2019-03-28T04:50:22.953Z,64.65
2019-03-28T04:52:53.113Z,64.90
2019-03-28T04:58:21.717Z,65.45
2019-03-28T05:01:30.889Z,64.58
2019-03-28T05:10:07.943Z,64.25
2019-03-28T05:12:38.022Z,65.63
2019-03-28T05:15:09.358Z,65.10
2019-03-28T05:17:39.376Z,64.38
2019-03-28T05:20:21.783Z,64.74
2019-03-28T05:25:47.033Z,63.51
2019-03-28T05:34:01.328Z,63.85
2019-03-28T05:37:10.459Z,64.07
2019-03-28T05:45:20.619Z,63.39
2019-03-28T05:50:59.912Z,63.34
2019-03-28T05:53:49.495Z,63.14
2019-03-28T05:59:26.176Z,62.93
2019-03-28T06:13:48.362Z,62.20
2019-03-28T06:22:13.524Z,62.15
2019-03-28T06:24:43.678Z,62.24
2019-03-28T06:33:23.155Z,62.10
2019-03-28T06:38:48.627Z,61.77
2019-03-28T06:44:38.351Z,61.77
2019-03-28T06:50:15.323Z,61.85
2019-03-28T06:58:23.049Z,60.94
2019-03-28T07:01:31.964Z,61.21
2019-03-28T07:07:09.189Z,60.63
2019-03-28T07:12:45.259Z,60.06
2019-03-28T07:18:39.998Z,59.73
2019-03-28T07:21:09.991Z,60.01
2019-03-28T07:24:19.057Z,59.97
2019-03-28T07:30:09.200Z,60.30
2019-03-28T07:35:34.459Z,59.85
2019-03-28T07:38:43.384Z,59.89
2019-03-28T07:44:47.872Z,60.32
2019-03-28T07:50:33.594Z,60.09
2019-03-28T07:56:06.253Z,60.08
2019-03-28T08:01:45.434Z,59.87
2019-03-28T08:07:44.835Z,59.15
2019-03-28T08:16:23.577Z,58.98
2019-03-28T08:28:10.356Z,58.19
2019-03-28T08:31:19.639Z,58.03
2019-03-28T08:34:31.257Z,57.85
2019-03-28T08:42:51.659Z,57.29
2019-03-28T08:48:22.962Z,56.67
2019-03-28T08:54:02.111Z,55.17
2019-03-28T08:59:52.101Z,51.58
2019-03-28T09:05:47.492Z,51.49
2019-03-28T09:08:17.636Z,47.54
2019-03-28T09:11:26.622Z,47.03
2019-03-28T09:13:56.726Z,42.29
2019-03-28T09:16:26.789Z,36.64
2019-03-28T09:21:52.385Z,34.22
2019-03-28T09:27:31.847Z,30.48
2019-03-28T09:30:01.881Z,28.46
2019-03-28T09:33:10.822Z,27.42
2019-03-28T09:36:19.815Z,27.77
2019-03-28T09:42:15.125Z,23.57
2019-03-28T09:48:11.916Z,24.32
2019-03-28T09:53:37.561Z,24.74
2019-03-28T09:56:07.692Z,25.40
2019-03-28T09:58:37.602Z,27.32
2019-03-28T10:01:46.663Z,27.36
2019-03-28T10:07:38.512Z,25.95
2019-03-28T10:13:20.450Z,26.36
2019-03-28T10:15:50.512Z,25.69
2019-03-28T10:18:39.191Z,22.81
2019-03-28T10:21:09.135Z,21.44
2019-03-28T10:23:39.984Z,20.46
2019-03-28T10:26:10.944Z,21.10
2019-03-28T10:29:19.961Z,23.86
2019-03-28T10:35:14.918Z,23.74
2019-03-28T10:37:44.968Z,21.88
2019-03-28T10:40:53.933Z,22.71
2019-03-28T10:49:13.009Z,23.55
2019-03-28T10:54:38.534Z,21.58
2019-03-28T11:00:56.750Z,20.43
2019-03-28T11:03:37.179Z,23.56
2019-03-28T11:09:21.856Z,24.03
2019-03-28T11:11:51.875Z,24.38
2019-03-28T11:14:21.997Z,25.06
2019-03-28T11:25:45.693Z,23.55
2019-03-28T11:32:04.080Z,23.89
2019-03-28T11:34:34.120Z,24.67
2019-03-28T11:37:04.115Z,24.26
2019-03-28T11:39:34.029Z,23.91
2019-03-28T11:42:04.149Z,25.06
2019-03-28T11:44:34.138Z,24.67
2019-03-28T11:47:04.032Z,25.99
2019-03-28T11:53:09.389Z,26.93
2019-03-28T12:07:14.065Z,28.95
2019-03-28T12:12:50.715Z,29.40
2019-03-28T12:18:45.857Z,31.34
2019-03-28T12:21:15.842Z,31.90
2019-03-28T12:26:41.064Z,33.61
2019-03-28T12:35:36.894Z,35.46
2019-03-28T12:40:46.680Z,34.82
2019-03-28T12:43:55.605Z,34.51
2019-03-28T12:47:04.637Z,33.86
2019-03-28T12:52:16.256Z,33.85
2019-03-28T12:54:46.148Z,34.11
2019-03-28T12:57:16.070Z,34.12
2019-03-28T12:59:46.063Z,34.16
2019-03-28T13:06:04.337Z,32.36
2019-03-28T13:11:13.864Z,32.53
2019-03-28T13:14:22.854Z,35.68
2019-03-28T13:17:31.924Z,34.19
2019-03-28T13:20:01.924Z,35.41
2019-03-28T13:28:33.045Z,30.60
2019-03-28T13:31:03.032Z,30.78
2019-03-28T13:33:53.325Z,31.20
2019-03-28T13:36:23.571Z,30.88
2019-03-28T13:41:49.796Z,30.90
2019-03-28T13:44:38.510Z,31.93
2019-03-28T13:47:27.401Z,32.07
2019-03-28T13:53:06.814Z,33.50
2019-03-28T13:55:37.232Z,34.71
2019-03-28T13:58:07.146Z,36.49
2019-03-28T14:00:37.374Z,37.08
2019-03-28T14:03:07.368Z,37.04
2019-03-28T14:05:37.492Z,37.41
2019-03-28T14:08:07.464Z,37.48
2019-03-28T14:10:37.352Z,37.37
2019-03-28T14:13:07.252Z,37.73
2019-03-28T14:15:38.485Z,36.71
2019-03-28T14:18:08.457Z,35.07
2019-03-28T14:20:38.435Z,32.53
2019-03-28T14:29:11.633Z,31.04
2019-03-28T14:31:41.599Z,31.70
2019-03-28T14:34:11.489Z,33.04
2019-03-28T14:36:41.488Z,31.71
2019-03-28T14:39:11.380Z,30.82
2019-03-28T14:41:41.450Z,34.68
2019-03-28T14:44:11.316Z,36.54
2019-03-28T14:46:41.408Z,37.20
2019-03-28T14:49:11.533Z,38.42
2019-03-28T14:51:41.735Z,40.21
2019-03-28T14:54:12.012Z,41.26
2019-03-28T14:57:21.096Z,42.74
2019-03-28T15:03:25.716Z,43.99
2019-03-28T15:05:48.814Z,44.63
2019-03-28T15:08:18.871Z,44.99
2019-03-28T15:10:48.843Z,45.59
2019-03-28T15:13:18.770Z,45.90
2019-03-28T15:15:48.763Z,45.58
2019-03-28T15:18:18.659Z,44.02
2019-03-28T15:20:48.607Z,45.09
2019-03-28T15:23:18.813Z,43.72
2019-03-28T15:25:48.810Z,44.11
2019-03-28T15:31:33.342Z,43.08
2019-03-28T15:34:06.482Z,43.29
2019-03-28T15:36:36.555Z,44.02
2019-03-28T15:39:09.927Z,44.88
2019-03-28T15:44:49.120Z,46.07
2019-03-28T15:53:21.795Z,48.20
2019-03-28T15:55:51.703Z,48.18
2019-03-28T16:01:27.477Z,48.20
2019-03-28T16:06:53.261Z,46.00
2019-03-28T16:09:23.386Z,45.55
2019-03-28T16:12:02.373Z,46.28
2019-03-28T16:14:25.358Z,46.89
2019-03-28T16:20:03.082Z,48.72
2019-03-28T16:30:56.775Z,50.11
2019-03-28T16:34:07.450Z,50.12
2019-03-28T16:39:33.941Z,51.29
2019-03-28T16:42:03.875Z,51.79
2019-03-28T16:44:33.858Z,52.27
2019-03-28T16:47:03.867Z,51.74
2019-03-28T16:50:12.886Z,52.81
2019-03-28T16:53:21.717Z,52.65
2019-03-28T16:55:51.659Z,52.58
2019-03-28T16:59:00.636Z,53.42
2019-03-28T17:01:30.836Z,54.23
2019-03-28T17:04:00.757Z,54.67
2019-03-28T17:06:30.769Z,55.20
2019-03-28T17:09:01.611Z,55.20
2019-03-28T17:11:31.850Z,55.34
2019-03-28T17:14:01.811Z,55.42
2019-03-28T17:16:31.785Z,55.33
2019-03-28T17:19:01.859Z,56.23
2019-03-28T17:21:31.763Z,56.19
2019-03-28T17:33:11.474Z,56.89
2019-03-28T17:35:52.904Z,56.21
2019-03-28T17:38:22.931Z,57.59
2019-03-28T17:40:52.885Z,57.65
2019-03-28T17:43:22.750Z,57.61
2019-03-28T17:45:52.799Z,57.89
2019-03-28T17:48:22.878Z,58.51
2019-03-28T17:50:52.804Z,58.59
2019-03-28T17:53:24.146Z,58.76
2019-03-28T17:55:54.180Z,58.83
2019-03-28T17:58:24.269Z,58.53
2019-03-28T18:00:54.164Z,59.04
2019-03-28T18:03:31.138Z,58.94
2019-03-28T18:05:58.271Z,59.08
2019-03-28T18:08:28.067Z,59.36
2019-03-28T18:11:00.358Z,59.05
2019-03-28T18:13:31.401Z,59.35
2019-03-28T18:16:01.641Z,59.22
2019-03-28T18:18:31.497Z,60.02
2019-03-28T18:21:01.425Z,60.22
2019-03-28T18:23:31.294Z,60.23
2019-03-28T18:26:01.186Z,59.76
2019-03-28T18:28:31.578Z,60.34
2019-03-28T18:31:01.804Z,60.33
2019-03-28T18:33:31.709Z,60.61
2019-03-28T18:36:01.688Z,60.78
2019-03-28T18:38:31.727Z,60.38
2019-03-28T18:46:52.824Z,60.94
2019-03-28T18:55:28.271Z,61.58
2019-03-28T19:01:07.483Z,61.66
2019-03-28T19:07:05.669Z,61.82
2019-03-28T19:15:46.743Z,61.61
2019-03-28T19:21:56.877Z,62.48
2019-03-28T19:27:37.296Z,62.59
2019-03-28T19:30:08.891Z,62.69
2019-03-28T19:32:38.962Z,62.72
2019-03-28T19:35:10.475Z,63.04
2019-03-28T19:37:41.888Z,63.13
2019-03-28T19:40:13.155Z,63.38
2019-03-28T19:42:44.013Z,63.23
2019-03-28T19:48:32.132Z,63.14
2019-03-28T19:51:02.335Z,63.50
2019-03-28T19:53:35.157Z,63.14
2019-03-28T19:56:04.147Z,63.00
2019-03-28T20:01:44.922Z,62.38
2019-03-28T20:04:14.981Z,61.99
2019-03-28T20:06:44.962Z,61.94
2019-03-28T20:09:16.344Z,61.68
2019-03-28T20:11:46.884Z,61.75
2019-03-28T20:14:17.081Z,61.59
2019-03-28T20:16:47.352Z,61.73
2019-03-28T20:19:17.935Z,61.45
2019-03-28T20:21:48.357Z,61.43
2019-03-28T20:24:19.854Z,61.34
2019-03-28T20:26:50.428Z,60.96
2019-03-28T20:29:20.577Z,61.10
2019-03-28T20:31:50.627Z,60.91
2019-03-28T20:34:21.158Z,61.08
2019-03-28T20:36:53.064Z,61.12
2019-03-28T20:39:22.980Z,60.98
2019-03-28T20:41:53.010Z,61.06
2019-03-28T20:44:22.949Z,60.72
2019-03-28T20:46:55.271Z,60.70
2019-03-28T20:49:26.315Z,60.61
2019-03-28T20:52:39.472Z,61.06
2019-03-28T20:55:30.656Z,60.92
2019-03-28T20:58:04.302Z,60.96
2019-03-28T21:00:47.732Z,60.95
2019-03-28T21:03:17.767Z,60.33
2019-03-28T21:05:47.996Z,60.28
2019-03-28T21:08:18.128Z,60.01
2019-03-28T21:10:48.234Z,59.97
2019-03-28T21:13:57.175Z,59.58
2019-03-28T21:19:22.779Z,59.38
2019-03-28T21:21:52.787Z,59.53
2019-03-28T21:24:23.002Z,59.30
2019-03-28T21:26:53.090Z,59.13
2019-03-28T21:29:23.164Z,59.29
2019-03-28T21:31:53.341Z,59.27
2019-03-28T21:34:23.787Z,58.78
2019-03-28T21:36:53.717Z,58.04
2019-03-28T21:39:23.609Z,57.88
2019-03-28T21:41:53.560Z,57.68
2019-03-28T21:44:23.502Z,57.64
2019-03-28T21:46:53.369Z,57.32
2019-03-28T21:49:23.292Z,57.09
2019-03-28T21:51:53.186Z,56.55
2019-03-28T21:54:23.295Z,56.46
2019-03-28T21:56:53.590Z,56.15
2019-03-28T21:59:23.520Z,55.91
2019-03-28T22:01:53.515Z,55.69
2019-03-28T22:04:23.483Z,55.51
2019-03-28T22:06:53.462Z,55.51
2019-03-28T22:09:24.236Z,55.22
2019-03-28T22:11:54.859Z,55.23
2019-03-28T22:14:24.808Z,54.41
2019-03-28T22:16:54.823Z,52.95
2019-03-28T22:19:25.831Z,51.94
2019-03-28T22:21:55.922Z,51.17
2019-03-28T22:24:25.821Z,50.84
2019-03-28T22:26:55.790Z,50.65
2019-03-28T22:29:25.665Z,50.25
2019-03-28T22:31:56.231Z,50.36
2019-03-28T22:34:26.899Z,50.29
2019-03-28T22:36:59.415Z,50.16
2019-03-28T22:39:28.443Z,50.17
2019-03-28T22:41:58.378Z,49.81
2019-03-28T22:44:28.249Z,49.16
2019-03-28T22:46:58.124Z,49.09
2019-03-28T22:49:28.170Z,49.18
2019-03-28T22:51:58.091Z,48.74
2019-03-28T22:54:28.080Z,48.84
2019-03-28T22:56:58.037Z,48.83
2019-03-28T22:59:27.963Z,48.01
2019-03-28T23:01:57.887Z,47.84
2019-03-28T23:04:27.990Z,47.74
2019-03-28T23:07:10.463Z,48.22
2019-03-28T23:09:29.546Z,48.42
2019-03-28T23:11:59.576Z,48.27
2019-03-28T23:14:29.457Z,47.75
2019-03-28T23:16:59.355Z,47.25
2019-03-28T23:19:29.292Z,47.32
2019-03-28T23:21:59.205Z,47.96
2019-03-28T23:24:29.080Z,48.00
2019-03-28T23:26:59.052Z,47.78
2019-03-28T23:29:28.952Z,47.61
2019-03-28T23:31:58.826Z,47.55
2019-03-28T23:34:28.827Z,47.99
2019-03-28T23:36:58.864Z,48.40
2019-03-28T23:39:28.938Z,48.14
2019-03-28T23:41:58.889Z,48.21
2019-03-28T23:44:28.878Z,48.40
2019-03-28T23:46:58.794Z,48.34
2019-03-28T23:49:28.780Z,48.52
2019-03-28T23:51:58.676Z,48.05
2019-03-28T23:54:28.608Z,47.71
2019-03-28T23:56:58.514Z,47.58
2019-03-28T23:59:28.434Z,47.49
